createdAt,value
2018-04-28T00:01:00.083Z,"    0"
2018-04-28T00:05:55.973Z,"    0"
2018-04-28T00:10:51.536Z,"    0"
2018-04-28T00:15:47.232Z,"    0"
2018-04-28T00:20:44.067Z,"    0"
2018-04-28T00:25:39.519Z,"    0"
2018-04-28T00:30:35.109Z,"    0"
2018-04-28T00:35:34.774Z,"    0"
2018-04-28T00:40:29.871Z,"    0"
2018-04-28T00:45:26.643Z,"    0"
2018-04-28T00:50:26.188Z,"    0"
2018-04-28T00:55:21.331Z,"    0"
2018-04-28T01:00:18.288Z,"    0"
2018-04-28T01:05:13.679Z,"    0"
2018-04-28T01:10:09.574Z,"    0"
2018-04-28T01:15:05.465Z,"    0"
2018-04-28T01:20:01.052Z,"    0"
2018-04-28T01:25:01.226Z,"    0"
2018-04-28T01:29:56.351Z,"    0"
2018-04-28T01:34:52.750Z,"    0"
2018-04-28T01:39:49.306Z,"    0"
2018-04-28T01:44:45.133Z,"    0"
2018-04-28T01:49:45.228Z,"    0"
2018-04-28T01:54:44.377Z,"    0"
2018-04-28T01:59:40.802Z,"    0"
2018-04-28T02:04:40.221Z,"    0"
2018-04-28T02:09:35.618Z,"    0"
2018-04-28T02:14:35.173Z,"    0"
2018-04-28T02:19:34.384Z,"    0"
2018-04-28T02:24:33.202Z,"    0"
2018-04-28T02:29:29.039Z,"    0"
2018-04-28T02:34:25.179Z,"    0"
2018-04-28T02:39:20.952Z,"    0"
2018-04-28T02:44:16.854Z,"    0"
2018-04-28T02:49:12.596Z,"    0"
2018-04-28T02:54:12.315Z,"    0"
2018-04-28T02:59:07.299Z,"    0"
2018-04-28T03:04:02.952Z,"    0"
2018-04-28T03:08:59.536Z,"    0"
2018-04-28T03:13:55.704Z,"    0"
2018-04-28T03:18:52.205Z,"    0"
2018-04-28T03:23:51.622Z,"    0"
2018-04-28T03:28:50.347Z,"    0"
2018-04-28T03:33:45.444Z,"    0"
2018-04-28T03:38:41.072Z,"    0"
2018-04-28T03:43:36.900Z,"    0"
2018-04-28T03:48:32.399Z,"    0"
2018-04-28T03:53:28.203Z,"    0"
2018-04-28T03:58:24.191Z,"    0"
2018-04-28T04:03:20.211Z,"    5"
2018-04-28T04:08:16.233Z,"    5"
2018-04-28T04:13:15.977Z,"   10"
2018-04-28T04:18:10.979Z,"   15"
2018-04-28T04:23:07.042Z,"   20"
2018-04-28T04:28:02.797Z,"   25"
2018-04-28T04:32:58.758Z,"   35"
2018-04-28T04:37:58.783Z,"   45"
2018-04-28T04:42:57.487Z,"   55"
2018-04-28T04:47:52.444Z,"   60"
2018-04-28T04:52:49.252Z,"   70"
2018-04-28T04:57:44.935Z,"   75"
2018-04-28T05:02:41.863Z,"   75"
2018-04-28T05:07:37.383Z,"   85"
2018-04-28T05:12:33.411Z,"   95"
2018-04-28T05:17:30.346Z,"   95"
2018-04-28T05:22:25.865Z,"  105"
2018-04-28T05:27:21.737Z,"  130"
2018-04-28T05:32:21.793Z,"  135"
2018-04-28T05:37:17.921Z,"  150"
2018-04-28T05:42:13.552Z,"  150"
2018-04-28T05:47:11.146Z,"  165"
2018-04-28T05:52:07.931Z,"  180"
2018-04-28T05:57:07.683Z,"  185"
2018-04-28T06:02:03.190Z,"  185"
2018-04-28T06:07:03.906Z,"  180"
2018-04-28T06:11:59.698Z,"  185"
2018-04-28T06:16:56.086Z,"  230"
2018-04-28T06:21:57.271Z,"  235"
2018-04-28T06:26:53.362Z,"  215"
2018-04-28T06:31:49.206Z,"  210"
2018-04-28T06:36:45.011Z,"  215"
2018-04-28T06:41:45.750Z,"  220"
2018-04-28T06:46:41.034Z,"  245"
2018-04-28T06:51:37.324Z,"  250"
2018-04-28T06:56:34.156Z,"  250"
2018-04-28T07:01:34.582Z,"  265"
2018-04-28T07:06:33.649Z,"  265"
2018-04-28T07:11:28.984Z,"  270"
2018-04-28T07:16:29.728Z,"  270"
2018-04-28T07:21:24.646Z,"  310"
2018-04-28T07:26:20.584Z,"  310"
2018-04-28T07:31:20.339Z,"  390"
2018-04-28T07:36:15.520Z,"  590"
2018-04-28T07:41:12.760Z,"  820"
2018-04-28T07:46:09.828Z,"  620"
2018-04-28T07:51:05.873Z,"  455"
2018-04-28T07:56:01.666Z,"  415"
2018-04-28T08:00:58.010Z,"  890"
2018-04-28T08:05:58.616Z,"  580"
2018-04-28T08:10:53.574Z,"  345"
2018-04-28T08:15:53.876Z,"  330"
2018-04-28T08:20:52.180Z,"  195"
2018-04-28T08:25:50.416Z,"  200"
2018-04-28T08:30:48.940Z,"  190"
2018-04-28T08:35:43.483Z,"  205"
2018-04-28T08:40:39.442Z,"  220"
2018-04-28T08:45:35.402Z,"  245"
2018-04-28T08:50:31.576Z,"  295"
2018-04-28T08:55:27.900Z,"  360"
2018-04-28T09:00:29.616Z,"  495"
2018-04-28T09:05:24.924Z,"  540"
2018-04-28T09:10:22.271Z,"  470"
2018-04-28T09:15:22.449Z,"  535"
2018-04-28T09:20:21.660Z,"  435"
2018-04-28T09:25:20.731Z,"  575"
2018-04-28T09:30:16.915Z,"  625"
2018-04-28T09:35:18.226Z,"  655"
2018-04-28T09:40:13.458Z," 1010"
2018-04-28T09:45:14.433Z,"  940"
2018-04-28T09:50:09.793Z,"  595"
2018-04-28T09:55:05.509Z,"  530"
2018-04-28T10:00:01.550Z,"  235"
2018-04-28T10:04:56.239Z,"  295"
2018-04-28T10:09:55.578Z,"  490"
2018-04-28T10:14:52.041Z,"  315"
2018-04-28T10:19:47.818Z,"  335"
2018-04-28T10:24:47.274Z,"  250"
2018-04-28T10:29:47.226Z,"  345"
2018-04-28T10:34:46.003Z,"  405"
2018-04-28T10:39:41.066Z,"  260"
2018-04-28T10:44:40.540Z,"  275"
2018-04-28T10:49:35.379Z,"  260"
2018-04-28T10:54:32.729Z,"  335"
2018-04-28T10:59:28.349Z,"  405"
2018-04-28T11:04:24.771Z,"  460"
2018-04-28T11:09:25.058Z,"  505"
2018-04-28T11:14:25.033Z,"  350"
2018-04-28T11:19:20.469Z,"  270"
2018-04-28T11:24:15.441Z,"  235"
2018-04-28T11:29:10.967Z,"  250"
2018-04-28T11:34:10.288Z,"  220"
2018-04-28T11:39:05.236Z,"  290"
2018-04-28T11:44:02.668Z,"  475"
2018-04-28T11:49:02.915Z,"  435"
2018-04-28T11:53:59.283Z," 1270"
2018-04-28T11:58:59.280Z,"  335"
2018-04-28T12:03:53.947Z,"  275"
2018-04-28T12:08:49.687Z,"  410"
2018-04-28T12:13:45.471Z,"  245"
2018-04-28T12:18:45.971Z,"  225"
2018-04-28T12:23:40.411Z,"  200"
2018-04-28T12:28:39.942Z,"  290"
2018-04-28T12:33:40.035Z,"  440"
2018-04-28T12:38:36.082Z,"  435"
2018-04-28T12:43:33.318Z,"  720"
2018-04-28T12:48:29.783Z,"  280"
2018-04-28T12:53:26.096Z," 1150"
2018-04-28T12:58:22.157Z,"  995"
2018-04-28T13:03:19.502Z,"  390"
2018-04-28T13:08:18.583Z,"  305"
2018-04-28T13:13:18.522Z,"  125"
2018-04-28T13:18:16.558Z,"   75"
2018-04-28T13:23:10.788Z,"   45"
2018-04-28T13:28:06.561Z,"   60"
2018-04-28T13:33:02.015Z,"  125"
2018-04-28T13:37:57.432Z,"  170"
2018-04-28T13:42:58.379Z,"  240"
2018-04-28T13:47:53.130Z,"  195"
2018-04-28T13:52:49.081Z,"  195"
2018-04-28T13:57:48.636Z,"  200"
2018-04-28T14:02:44.876Z,"  230"
2018-04-28T14:07:45.778Z,"  315"
2018-04-28T14:12:41.808Z,"  280"
2018-04-28T14:17:37.975Z,"  255"
2018-04-28T14:22:37.793Z,"  165"
2018-04-28T14:27:37.251Z,"  310"
2018-04-28T14:32:33.043Z,"  260"
2018-04-28T14:37:28.647Z,"  210"
2018-04-28T14:42:26.001Z,"  185"
2018-04-28T14:47:25.710Z,"  235"
2018-04-28T14:52:22.000Z,"  270"
2018-04-28T14:57:17.825Z,"  250"
2018-04-28T15:02:14.662Z,"  230"
2018-04-28T15:07:10.354Z,"  210"
2018-04-28T15:12:10.826Z,"  195"
2018-04-28T15:17:05.830Z,"  205"
2018-04-28T15:22:02.602Z,"  200"
2018-04-28T15:27:03.076Z,"  210"
2018-04-28T15:32:01.931Z,"  210"
2018-04-28T15:37:00.901Z,"  210"
2018-04-28T15:41:59.955Z,"  185"
2018-04-28T15:46:58.903Z,"  140"
2018-04-28T15:51:54.670Z,"  130"
2018-04-28T15:56:50.143Z,"  135"
2018-04-28T16:01:49.737Z,"  125"
2018-04-28T16:06:44.574Z,"  120"
2018-04-28T16:11:44.171Z,"  130"
2018-04-28T16:16:39.110Z,"  130"
2018-04-28T16:21:35.065Z,"  110"
2018-04-28T16:26:34.706Z,"  105"
2018-04-28T16:31:30.785Z,"   85"
2018-04-28T16:36:27.171Z,"   75"
2018-04-28T16:41:26.447Z,"   65"
2018-04-28T16:46:21.519Z,"   95"
2018-04-28T16:51:22.214Z,"   95"
2018-04-28T16:56:17.050Z,"   90"
2018-04-28T17:01:13.231Z,"   80"
2018-04-28T17:06:09.020Z,"   70"
2018-04-28T17:11:04.823Z,"   65"
2018-04-28T17:16:00.611Z,"   55"
2018-04-28T17:20:57.824Z,"   50"
2018-04-28T17:25:53.263Z,"   45"
2018-04-28T17:30:49.583Z,"   40"
2018-04-28T17:35:45.505Z,"   30"
2018-04-28T17:40:41.350Z,"   25"
2018-04-28T17:45:37.045Z,"   25"
2018-04-28T17:50:33.678Z,"   25"
2018-04-28T17:55:33.735Z,"   20"
2018-04-28T18:00:33.620Z,"   15"
2018-04-28T18:05:32.229Z,"   10"
2018-04-28T18:10:32.037Z,"   10"
2018-04-28T18:15:28.105Z,"    5"
2018-04-28T18:20:24.666Z,"    5"
2018-04-28T18:25:20.265Z,"    5"
2018-04-28T18:30:19.943Z,"    5"
2018-04-28T18:35:15.088Z,"    5"
2018-04-28T18:40:15.792Z,"    0"
2018-04-28T18:45:14.577Z,"    0"
2018-04-28T18:50:13.387Z,"    0"
2018-04-28T18:55:12.438Z,"    0"
2018-04-28T19:00:08.357Z,"    0"
2018-04-28T19:05:07.813Z,"    0"
2018-04-28T19:10:08.012Z,"    0"
2018-04-28T19:15:04.676Z,"    0"
2018-04-28T19:20:00.553Z,"    0"
2018-04-28T19:25:00.229Z,"    0"
2018-04-28T19:29:59.219Z,"    0"
2018-04-28T19:34:59.183Z,"    0"
2018-04-28T19:39:57.889Z,"    0"
2018-04-28T19:44:53.080Z,"    0"
2018-04-28T19:49:48.987Z,"    0"
2018-04-28T19:54:48.607Z,"    0"
2018-04-28T19:59:44.766Z,"    0"
2018-04-28T20:04:41.294Z,"    0"
2018-04-28T20:09:40.762Z,"    0"
2018-04-28T20:14:39.659Z,"    0"
2018-04-28T20:19:34.525Z,"    0"
2018-04-28T20:24:30.975Z,"    0"
2018-04-28T20:29:27.977Z,"    0"
2018-04-28T20:34:27.261Z,"    0"
2018-04-28T20:39:26.946Z,"    0"
2018-04-28T20:44:25.782Z,"    0"
2018-04-28T20:49:20.905Z,"    0"
2018-04-28T20:54:16.477Z,"    0"
2018-04-28T20:59:16.723Z,"    0"
2018-04-28T21:04:11.863Z,"    0"
2018-04-28T21:09:07.336Z,"    0"
2018-04-28T21:14:02.987Z,"    0"
2018-04-28T21:18:58.977Z,"    0"
2018-04-28T21:23:55.252Z,"    0"
2018-04-28T21:28:52.142Z,"    0"
2018-04-28T21:33:48.667Z,"    0"
2018-04-28T21:38:45.534Z,"    0"
2018-04-28T21:43:45.106Z,"    0"
2018-04-28T21:48:41.087Z,"    0"
2018-04-28T21:53:36.483Z,"    0"
2018-04-28T21:58:36.245Z,"    0"
2018-04-28T22:03:36.228Z,"    0"
2018-04-28T22:08:32.121Z,"    0"
2018-04-28T22:13:28.043Z,"    0"
2018-04-28T22:18:23.877Z,"    0"
2018-04-28T22:23:23.871Z,"    0"
2018-04-28T22:28:18.908Z,"    0"
2018-04-28T22:33:14.400Z,"    0"
2018-04-28T22:38:15.100Z,"    0"
2018-04-28T22:43:13.619Z,"    0"
2018-04-28T22:48:08.625Z,"    0"
2018-04-28T22:53:05.297Z,"    0"
2018-04-28T22:58:04.943Z,"    0"
2018-04-28T23:03:03.824Z,"    0"
2018-04-28T23:08:02.518Z,"    0"
2018-04-28T23:12:58.365Z,"    0"
2018-04-28T23:17:55.689Z,"    0"
2018-04-28T23:22:50.985Z,"    0"
2018-04-28T23:27:47.159Z,"    0"
2018-04-28T23:32:42.952Z,"    0"
2018-04-28T23:37:42.671Z,"    0"
2018-04-28T23:42:38.596Z,"    0"
2018-04-28T23:47:39.011Z,"    0"
2018-04-28T23:52:38.417Z,"    0"
2018-04-28T23:57:33.264Z,"    0"
